Avioradar koristi kolačiće da bi Vam omogućio jednostavnije i ugodnije korištenje stranice. 

AVIORADAR - Hrvatski zrakoplovni portal

POREMEĆAJ: 2. veljače 2018. - vremenske neprilike

Nenad Sredojević.

DBV RWY30

 

PETAK 2.veljače 2018

Nešto ranije, velike količine snijega su uzrokovale poremećaj u zračnom prometu u Sloveniji pa je let U23245 / EZY86FU iz Londona (STN) za Ljubljanu (LJU) preusmjeren na Zagreb dok su ostali čekali u holdingu smirivanje situacije.

Prvi let koji je zahvaćen poremećajem je onaj Croatia Airlinesa iz Zagreba za Dubrovnik koji je preusmjeren na Split.

Dubrovnik je i tijekom dana pod niskom naoblakom koja u kombinaciji sa nedostatkom ILS-a i skraćenom pistom zbog radova na ZL Dubrovnik onemogućava slijetanja.

ETALETIZZASTATUSINFO
PETAK 2.veljače 2018
12:45OU668/CTN8Y ZAGREB (ZAG)DUBROVNIK (DBV)PREUSMJEREN SPLIT (SPU)Niska naoblaka
14:25OU669/CTN6XDUBROVNIK (DBV)ZAGREB (ZAG)OTKAZANPosljedično OU668/CTN8Y
15:45OU662/CTN8AZAGREB (ZAG)DUBROVNIK (DBV)PREUSMJEREN SPLIT (SPU)Niska naoblaka
16:25OU665/CTN6JDUBROVNIK (DBV)ZAGREB (ZAG)OTKAZANPosljedično OU662/CTN8A
22:05OU664/CTN664ZAGREB (ZAG)DUBROVNIK (DBV)PREUSMJEREN SPLIT (SPU)Niska naoblaka

Za sve aerodrome na Jadranu najavljeno je grmljavinsko nevrijeme uz pojavu Cumulonimbus oblaka (CB) dok je za Zagreb i Osijek najavljen jak snijeg. 

TAF LDZA 021125Z 0212/0312 04010KT 9999 SCT010 OVC025
                 TX02/0212Z TN00/0300Z
           TEMPO 0212/0216 4000 -RASN BKN010 OVC020
           BECMG 0214/0216 4000 -SN OVC014
           TEMPO 0214/0312 1000 SN OVC008
    PROB30 TEMPO 0215/0218 0400 +SN VV005
    PROB40 TEMPO 0308/0312 0400 +SN VV005=
TAF LDSP 021125Z 0212/0312 12010KT 9999 FEW020 BKN040
                 TX14/0212Z TN11/0306Z
           TEMPO 0212/0312 RA
    PROB40 TEMPO 0217/0303 20015KT 2000 TSRA FEW025CB BKN030
           TEMPO 0302/0309 18015G25KT
           TEMPO 0307/0312 2000 TSRA FEW025CB BKN035
           BECMG 0310/0312 18012KT=
TAF LDDU 021125Z 0212/0312 14015KT 9999 SCT010 BKN030
                 TX14/0213Z TN12/0300Z
           TEMPO 0212/0312 14018G30KT 4000 RA BKN008 OVC025
    PROB30 TEMPO 0212/0312 2000 TSRA SCT010 FEW020CB BKN025
           BECMG 0310/0312 22015KT=
TAF LDZD 021125Z 0212/0312 14015KT 9999 SCT040
                 TX14/0212Z TN07/0306Z
           TEMPO 0212/0312 RA
    PROB40 TEMPO 0214/0217 26018KT 4000 TSRA FEW025CB BKN030
           BECMG 0216/0218 04008KT
    PROB30 TEMPO 0303/0307 15012KT 2000 TSRA FEW030CB BKN035=
TAF LDPL 021125Z 0212/0312 VRB02KT 9999 BKN030
                 TX11/0212Z TN02/0305Z
           TEMPO 0212/0312 RA BKN010
    PROB30 TEMPO 0212/0216 VRB15KT 4000 TSRA FEW025CB BKN030
           BECMG 0300/0302 07015G25KT=
TAF LDOS 021125Z 0212/0312 15010KT CAVOK
                 TX15/0212Z TN01/0309Z
           BECMG 0217/0219 32010KT 4000 -RA BKN010 OVC025
           TEMPO 0307/0312 2000 SNRA OVC008=
TAF LDRI 021125Z 0212/0312 VRB02KT 9999 BKN030
                 TX11/0212Z TN02/0305Z
           TEMPO 0212/0312 RA BKN010
    PROB30 TEMPO 0212/0218 VRB15KT 4000 TSRA FEW025CB BKN030
           BECMG 0222/0300 06015G30KT=
TAF AMD LDLO 011605Z 0116/0212 CNL=

Objavljena su i aerodromska upozorenja:

WORH60 LDDU 020421
LDDU AD WRNG 1 VALID 020600/030600
TS FCST NC=

WORH60 LDZA 020950
LDZA AD WRNG 1 VALID 021300/030600
SN 10CM FCST NC=

REDOVITI UPDATE!

Foto © Avioradar webcam
TAF & Upozorenja © Crocontrol / HKZP